KSEM

Details ICAO KSEM (SEM)
Name CRAIG FLD
Region United States
Timezone America/Chicago (UTC-6.0)
Plans Departing 2
Arriving 3
Stats Elevation 166 ft / 51 m (AMSL)
Location 32.343946° -86.987804°
Runways 1
Magnetic Variation 3.166° W
Sunrise 2017-12-14 12:42:48 UTC / 2017-12-14 06:42:48 Local
Sunset 2017-12-14 22:45:29 UTC / 2017-12-14 16:45:29 Local
Advertisement - Login to hide

Runways

ID Width Length Bearing (true) Bearing (mag) Surface Threshold Offset Overrun Length
15 150 ft / 46 m 8,014 ft / 2,443 m 145.92° 149.09° Asphalt 0 ft / 0 m 0 ft / 0 m
33 150 ft / 46 m 8,014 ft / 2,443 m 325.93° 329.10° Asphalt 0 ft / 0 m 896 ft / 273 m

Approach Navaids

Runway Type Ident Frequency Range Bearing (true) Bearing (mag) Slope Elevation
33 Localiser ISEM 110.50 MHz 18 nm / 33 km 325.93° 329.09° - 166 ft / 51 m (AMSL)
33 Glidescope ISEM 110.50 MHz 10 nm / 19 km 325.93° 329.09° 3.00° 165 ft / 50 m (AMSL)

Map

Weather


0- 5 10 15 20 25 30 35+ Temperature / ° C

Clouds and Precipitation
Forecast for 2017-12-15 00:00 UTC. Updated 2 hours ago

Ground ~20,000 ft ~40,000 ft Winds

METAR

KSEM 150115Z AUTO 00000KT 10SM CLR 06/05 A3001 RMK AO2 TSNO

TAF

Not found

Frequencies

Unicom 122.70 MHz CTAF/UNICOM
Approach 124.00 MHz MONTGOMERY APP/DEP
Warning: Do not use this data for real-world aviation or navigation. No guarantee of current accuracy is given.